sensor_id;sensor_type;location;lat;lon;timestamp;pressure;altitude;pressure_sealevel;temperature;humidity
12781;BME280;6454;43.304;24.344;2024-01-10T00:01:08;102067.66;;;-3.91;75.30
12781;BME280;6454;43.304;24.344;2024-01-10T00:03:34;102075.03;;;-3.85;73.99
12781;BME280;6454;43.304;24.344;2024-01-10T00:05:59;102074.50;;;-3.80;73.92
12781;BME280;6454;43.304;24.344;2024-01-10T00:08:25;102058.63;;;-3.90;74.29
12781;BME280;6454;43.304;24.344;2024-01-10T00:10:52;102071.03;;;-3.89;73.07
12781;BME280;6454;43.304;24.344;2024-01-10T00:13:19;102074.53;;;-3.88;73.64
12781;BME280;6454;43.304;24.344;2024-01-10T00:15:45;102082.94;;;-3.83;73.59
12781;BME280;6454;43.304;24.344;2024-01-10T00:18:10;102079.09;;;-3.89;73.55
12781;BME280;6454;43.304;24.344;2024-01-10T00:20:36;102071.38;;;-3.92;73.54
12781;BME280;6454;43.304;24.344;2024-01-10T00:23:01;102083.63;;;-3.89;73.59
12781;BME280;6454;43.304;24.344;2024-01-10T00:25:27;102085.63;;;-3.91;72.67
12781;BME280;6454;43.304;24.344;2024-01-10T00:27:52;102079.78;;;-3.95;72.96
12781;BME280;6454;43.304;24.344;2024-01-10T00:30:18;102078.75;;;-3.94;72.90
12781;BME280;6454;43.304;24.344;2024-01-10T00:32:43;102087.50;;;-3.92;72.89
12781;BME280;6454;43.304;24.344;2024-01-10T00:35:09;102082.13;;;-3.92;73.55
12781;BME280;6454;43.304;24.344;2024-01-10T00:37:35;102084.00;;;-4.00;74.42
12781;BME280;6454;43.304;24.344;2024-01-10T00:40:01;102080.47;;;-4.09;72.70
12781;BME280;6454;43.304;24.344;2024-01-10T00:42:29;102090.38;;;-4.09;73.64
12781;BME280;6454;43.304;24.344;2024-01-10T00:44:54;102075.16;;;-4.25;73.03
12781;BME280;6454;43.304;24.344;2024-01-10T00:47:20;102094.47;;;-4.30;72.88
12781;BME280;6454;43.304;24.344;2024-01-10T00:49:45;102082.56;;;-4.51;72.82
12781;BME280;6454;43.304;24.344;2024-01-10T00:52:11;102083.91;;;-4.55;72.14
12781;BME280;6454;43.304;24.344;2024-01-10T00:54:36;102084.22;;;-4.74;72.87
12781;BME280;6454;43.304;24.344;2024-01-10T00:57:02;102091.63;;;-4.76;73.50
12781;BME280;6454;43.304;24.344;2024-01-10T00:59:27;102077.69;;;-4.88;73.82
12781;BME280;6454;43.304;24.344;2024-01-10T01:01:53;102086.25;;;-4.85;72.08
12781;BME280;6454;43.304;24.344;2024-01-10T01:04:18;102088.41;;;-5.04;71.84
12781;BME280;6454;43.304;24.344;2024-01-10T01:06:44;102089.22;;;-5.20;72.93
12781;BME280;6454;43.304;24.344;2024-01-10T01:09:09;102088.34;;;-5.36;73.57
12781;BME280;6454;43.304;24.344;2024-01-10T01:11:35;102091.66;;;-5.43;73.67
12781;BME280;6454;43.304;24.344;2024-01-10T01:14:00;102091.34;;;-5.39;72.73
12781;BME280;6454;43.304;24.344;2024-01-10T01:16:25;102088.72;;;-5.65;73.41
12781;BME280;6454;43.304;24.344;2024-01-10T01:18:51;102085.69;;;-5.70;73.81
12781;BME280;6454;43.304;24.344;2024-01-10T01:21:16;102084.72;;;-6.03;73.87
12781;BME280;6454;43.304;24.344;2024-01-10T01:23:42;102079.19;;;-6.10;74.66
12781;BME280;6454;43.304;24.344;2024-01-10T01:26:07;102079.19;;;-6.10;75.07
12781;BME280;6454;43.304;24.344;2024-01-10T01:28:33;102082.84;;;-6.11;74.22
12781;BME280;6454;43.304;24.344;2024-01-10T01:30:58;102072.72;;;-6.25;72.97
12781;BME280;6454;43.304;24.344;2024-01-10T01:33:24;102078.06;;;-6.25;73.98
12781;BME280;6454;43.304;24.344;2024-01-10T01:35:49;102075.34;;;-6.33;72.57
12781;BME280;6454;43.304;24.344;2024-01-10T01:38:15;102069.16;;;-6.59;73.17
12781;BME280;6454;43.304;24.344;2024-01-10T01:40:40;102059.88;;;-6.73;75.05
12781;BME280;6454;43.304;24.344;2024-01-10T01:43:23;102053.59;;;-6.63;74.11
12781;BME280;6454;43.304;24.344;2024-01-10T01:45:55;102067.09;;;-6.65;73.34
12781;BME280;6454;43.304;24.344;2024-01-10T01:48:22;102060.03;;;-6.92;73.70
12781;BME280;6454;43.304;24.344;2024-01-10T01:50:50;102064.63;;;-7.02;75.09
12781;BME280;6454;43.304;24.344;2024-01-10T01:53:17;102063.78;;;-7.02;74.25
12781;BME280;6454;43.304;24.344;2024-01-10T01:55:44;102052.72;;;-7.07;75.68
12781;BME280;6454;43.304;24.344;2024-01-10T01:58:11;102040.22;;;-7.07;73.67
12781;BME280;6454;43.304;24.344;2024-01-10T02:00:38;102042.09;;;-7.17;73.30
12781;BME280;6454;43.304;24.344;2024-01-10T02:03:08;102052.66;;;-7.15;73.59
12781;BME280;6454;43.304;24.344;2024-01-10T02:05:34;102043.78;;;-7.34;73.81
12781;BME280;6454;43.304;24.344;2024-01-10T02:07:59;102031.66;;;-7.46;73.35
12781;BME280;6454;43.304;24.344;2024-01-10T02:10:25;102046.69;;;-7.45;72.96
12781;BME280;6454;43.304;24.344;2024-01-10T02:12:51;102040.34;;;-7.61;73.75
12781;BME280;6454;43.304;24.344;2024-01-10T02:15:16;102039.31;;;-7.78;74.34
12781;BME280;6454;43.304;24.344;2024-01-10T02:17:42;102035.63;;;-7.77;73.87
12781;BME280;6454;43.304;24.344;2024-01-10T02:20:14;102035.44;;;-7.93;73.23
12781;BME280;6454;43.304;24.344;2024-01-10T02:22:43;102043.53;;;-7.85;74.14
12781;BME280;6454;43.304;24.344;2024-01-10T02:25:10;102022.81;;;-7.91;73.66
12781;BME280;6454;43.304;24.344;2024-01-10T02:27:36;102039.41;;;-7.97;73.68
12781;BME280;6454;43.304;24.344;2024-01-10T02:30:03;102030.53;;;-8.15;72.81
12781;BME280;6454;43.304;24.344;2024-01-10T02:32:29;102035.97;;;-8.34;72.62
12781;BME280;6454;43.304;24.344;2024-01-10T02:34:55;102020.84;;;-8.43;74.89
12781;BME280;6454;43.304;24.344;2024-01-10T02:37:20;102034.44;;;-8.37;74.40
12781;BME280;6454;43.304;24.344;2024-01-10T02:39:46;102040.28;;;-8.33;73.84
12781;BME280;6454;43.304;24.344;2024-01-10T02:42:11;102028.44;;;-8.49;73.81
12781;BME280;6454;43.304;24.344;2024-01-10T02:44:37;102043.84;;;-8.42;73.06
12781;BME280;6454;43.304;24.344;2024-01-10T02:47:03;102032.63;;;-8.56;72.69
12781;BME280;6454;43.304;24.344;2024-01-10T02:49:28;102033.13;;;-8.70;73.24
12781;BME280;6454;43.304;24.344;2024-01-10T02:51:54;102017.44;;;-8.92;73.92
12781;BME280;6454;43.304;24.344;2024-01-10T02:54:19;102030.75;;;-8.92;73.96
12781;BME280;6454;43.304;24.344;2024-01-10T02:56:44;102006.53;;;-9.08;74.60
12781;BME280;6454;43.304;24.344;2024-01-10T02:59:10;102028.25;;;-9.03;74.61
12781;BME280;6454;43.304;24.344;2024-01-10T03:01:35;102018.31;;;-9.20;73.70
12781;BME280;6454;43.304;24.344;2024-01-10T03:04:01;102010.88;;;-9.26;75.57
12781;BME280;6454;43.304;24.344;2024-01-10T03:06:26;102010.47;;;-9.02;76.18
12781;BME280;6454;43.304;24.344;2024-01-10T03:08:52;101995.44;;;-9.03;73.01
12781;BME280;6454;43.304;24.344;2024-01-10T03:11:17;102004.88;;;-9.19;73.29
12781;BME280;6454;43.304;24.344;2024-01-10T03:13:46;102022.25;;;-9.24;73.63
12781;BME280;6454;43.304;24.344;2024-01-10T03:16:12;102010.63;;;-9.33;73.43
12781;BME280;6454;43.304;24.344;2024-01-10T03:18:38;102008.50;;;-9.20;75.21
12781;BME280;6454;43.304;24.344;2024-01-10T03:21:04;102004.41;;;-9.04;73.77
12781;BME280;6454;43.304;24.344;2024-01-10T03:23:29;102001.78;;;-9.14;72.58
12781;BME280;6454;43.304;24.344;2024-01-10T03:25:58;102020.28;;;-9.22;71.93
12781;BME280;6454;43.304;24.344;2024-01-10T03:28:23;101996.59;;;-9.54;72.30
12781;BME280;6454;43.304;24.344;2024-01-10T03:30:49;102020.66;;;-9.55;73.16
12781;BME280;6454;43.304;24.344;2024-01-10T03:33:15;102019.97;;;-9.57;73.47
12781;BME280;6454;43.304;24.344;2024-01-10T03:35:41;102023.59;;;-9.68;73.74
12781;BME280;6454;43.304;24.344;2024-01-10T03:38:07;102019.13;;;-9.68;74.77
12781;BME280;6454;43.304;24.344;2024-01-10T03:40:32;102016.75;;;-9.61;73.75
12781;BME280;6454;43.304;24.344;2024-01-10T03:42:58;102010.00;;;-9.75;73.23
12781;BME280;6454;43.304;24.344;2024-01-10T03:45:23;101999.38;;;-9.84;73.13
12781;BME280;6454;43.304;24.344;2024-01-10T03:47:49;102010.97;;;-9.85;73.61
12781;BME280;6454;43.304;24.344;2024-01-10T03:50:18;102011.13;;;-9.87;73.16
12781;BME280;6454;43.304;24.344;2024-01-10T03:52:44;102009.00;;;-9.83;73.64
12781;BME280;6454;43.304;24.344;2024-01-10T03:55:10;101980.81;;;-10.05;72.76
12781;BME280;6454;43.304;24.344;2024-01-10T03:57:36;102014.88;;;-9.89;73.17
12781;BME280;6454;43.304;24.344;2024-01-10T04:00:01;101994.28;;;-10.06;73.02
12781;BME280;6454;43.304;24.344;2024-01-10T04:02:26;101993.16;;;-10.13;73.64
12781;BME280;6454;43.304;24.344;2024-01-10T04:04:53;102013.84;;;-10.07;73.81
12781;BME280;6454;43.304;24.344;2024-01-10T04:07:19;102015.25;;;-10.13;73.73
12781;BME280;6454;43.304;24.344;2024-01-10T04:09:44;102014.69;;;-10.16;74.18
12781;BME280;6454;43.304;24.344;2024-01-10T04:12:10;102012.03;;;-10.16;73.72
12781;BME280;6454;43.304;24.344;2024-01-10T04:14:35;102024.47;;;-10.07;73.99
12781;BME280;6454;43.304;24.344;2024-01-10T04:17:01;102032.72;;;-10.10;74.33
12781;BME280;6454;43.304;24.344;2024-01-10T04:19:27;102019.69;;;-10.23;74.11
12781;BME280;6454;43.304;24.344;2024-01-10T04:21:52;102024.16;;;-10.23;73.97
12781;BME280;6454;43.304;24.344;2024-01-10T04:24:18;102029.38;;;-10.22;74.42
12781;BME280;6454;43.304;24.344;2024-01-10T04:26:43;102030.47;;;-10.24;74.58
12781;BME280;6454;43.304;24.344;2024-01-10T04:29:09;102032.84;;;-10.21;75.09
12781;BME280;6454;43.304;24.344;2024-01-10T04:31:34;102050.78;;;-10.14;75.11
12781;BME280;6454;43.304;24.344;2024-01-10T04:34:01;102051.75;;;-10.15;75.48
12781;BME280;6454;43.304;24.344;2024-01-10T04:36:26;102043.47;;;-10.21;74.77
12781;BME280;6454;43.304;24.344;2024-01-10T04:38:52;102042.34;;;-10.19;75.63
12781;BME280;6454;43.304;24.344;2024-01-10T04:41:18;102042.69;;;-10.12;75.82
12781;BME280;6454;43.304;24.344;2024-01-10T04:43:44;102045.47;;;-10.04;75.17
12781;BME280;6454;43.304;24.344;2024-01-10T04:46:09;102044.25;;;-9.91;75.06
12781;BME280;6454;43.304;24.344;2024-01-10T04:48:36;102041.88;;;-9.94;74.55
12781;BME280;6454;43.304;24.344;2024-01-10T04:51:01;102046.75;;;-9.99;74.27
12781;BME280;6454;43.304;24.344;2024-01-10T04:53:27;102046.59;;;-10.07;75.15
12781;BME280;6454;43.304;24.344;2024-01-10T04:55:52;102055.97;;;-10.03;74.77
12781;BME280;6454;43.304;24.344;2024-01-10T04:58:18;102059.63;;;-9.94;75.43
12781;BME280;6454;43.304;24.344;2024-01-10T05:00:43;102053.50;;;-9.85;73.89
12781;BME280;6454;43.304;24.344;2024-01-10T05:03:09;102062.34;;;-9.75;74.16
12781;BME280;6454;43.304;24.344;2024-01-10T05:05:34;102067.56;;;-9.64;73.55
12781;BME280;6454;43.304;24.344;2024-01-10T05:07:59;102060.41;;;-9.63;73.47
12781;BME280;6454;43.304;24.344;2024-01-10T05:10:26;102054.66;;;-9.69;73.09
12781;BME280;6454;43.304;24.344;2024-01-10T05:12:52;102054.50;;;-9.77;72.66
12781;BME280;6454;43.304;24.344;2024-01-10T05:15:17;102067.38;;;-9.82;72.69
12781;BME280;6454;43.304;24.344;2024-01-10T05:17:43;102060.63;;;-9.86;73.02
12781;BME280;6454;43.304;24.344;2024-01-10T05:20:08;102050.84;;;-9.95;73.12
12781;BME280;6454;43.304;24.344;2024-01-10T05:22:34;102067.06;;;-9.98;72.80
12781;BME280;6454;43.304;24.344;2024-01-10T05:25:00;102046.44;;;-10.15;73.53
12781;BME280;6454;43.304;24.344;2024-01-10T05:27:26;102053.72;;;-10.17;73.94
12781;BME280;6454;43.304;24.344;2024-01-10T05:29:52;102059.03;;;-10.17;73.57
12781;BME280;6454;43.304;24.344;2024-01-10T05:32:17;102068.69;;;-10.06;73.80
12781;BME280;6454;43.304;24.344;2024-01-10T05:34:44;102070.94;;;-10.02;73.52
12781;BME280;6454;43.304;24.344;2024-01-10T05:37:09;102070.81;;;-10.00;73.27
12781;BME280;6454;43.304;24.344;2024-01-10T05:39:35;102043.50;;;-10.12;72.63
12781;BME280;6454;43.304;24.344;2024-01-10T05:42:00;102047.28;;;-10.05;74.15
12781;BME280;6454;43.304;24.344;2024-01-10T05:44:28;102068.19;;;-9.91;72.22
12781;BME280;6454;43.304;24.344;2024-01-10T05:46:53;102055.25;;;-10.05;71.83
12781;BME280;6454;43.304;24.344;2024-01-10T05:49:19;102056.94;;;-10.13;72.80
12781;BME280;6454;43.304;24.344;2024-01-10T05:51:44;102057.78;;;-10.13;72.94
12781;BME280;6454;43.304;24.344;2024-01-10T05:54:10;102049.63;;;-10.21;72.30
12781;BME280;6454;43.304;24.344;2024-01-10T05:56:35;102054.78;;;-10.29;72.93
12781;BME280;6454;43.304;24.344;2024-01-10T05:59:01;102057.75;;;-10.22;72.76
12781;BME280;6454;43.304;24.344;2024-01-10T06:01:27;102058.25;;;-10.38;72.85
12781;BME280;6454;43.304;24.344;2024-01-10T06:03:52;102066.91;;;-10.36;72.91
12781;BME280;6454;43.304;24.344;2024-01-10T06:06:18;102064.59;;;-10.50;72.13
12781;BME280;6454;43.304;24.344;2024-01-10T06:08:43;102056.25;;;-10.66;73.27
12781;BME280;6454;43.304;24.344;2024-01-10T06:11:09;102066.19;;;-10.68;73.01
12781;BME280;6454;43.304;24.344;2024-01-10T06:13:35;102055.09;;;-10.73;73.27
12781;BME280;6454;43.304;24.344;2024-01-10T06:16:02;102082.75;;;-10.55;73.38
12781;BME280;6454;43.304;24.344;2024-01-10T06:18:28;102081.91;;;-10.56;73.24
12781;BME280;6454;43.304;24.344;2024-01-10T06:20:53;102084.81;;;-10.59;73.16
12781;BME280;6454;43.304;24.344;2024-01-10T06:23:19;102090.00;;;-10.57;73.00
12781;BME280;6454;43.304;24.344;2024-01-10T06:25:44;102089.88;;;-10.56;73.89
12781;BME280;6454;43.304;24.344;2024-01-10T06:28:10;102093.56;;;-10.47;73.81
12781;BME280;6454;43.304;24.344;2024-01-10T06:30:35;102097.34;;;-10.40;74.17
12781;BME280;6454;43.304;24.344;2024-01-10T06:33:01;102084.81;;;-10.38;73.94
12781;BME280;6454;43.304;24.344;2024-01-10T06:35:26;102088.75;;;-10.33;74.05
12781;BME280;6454;43.304;24.344;2024-01-10T06:37:52;102078.66;;;-10.39;73.78
12781;BME280;6454;43.304;24.344;2024-01-10T06:40:18;102087.91;;;-10.33;74.16
12781;BME280;6454;43.304;24.344;2024-01-10T06:42:43;102084.53;;;-10.35;74.43
12781;BME280;6454;43.304;24.344;2024-01-10T06:45:09;102084.44;;;-10.24;74.25
12781;BME280;6454;43.304;24.344;2024-01-10T06:47:37;102100.72;;;-10.17;74.71
12781;BME280;6454;43.304;24.344;2024-01-10T06:50:03;102093.59;;;-10.17;74.97
12781;BME280;6454;43.304;24.344;2024-01-10T06:52:31;102094.97;;;-10.13;75.25
12781;BME280;6454;43.304;24.344;2024-01-10T06:54:56;102097.00;;;-9.96;74.85
12781;BME280;6454;43.304;24.344;2024-01-10T06:57:22;102100.09;;;-9.91;74.47
12781;BME280;6454;43.304;24.344;2024-01-10T06:59:48;102098.84;;;-9.87;74.66
12781;BME280;6454;43.304;24.344;2024-01-10T07:02:13;102111.63;;;-9.71;74.63
12781;BME280;6454;43.304;24.344;2024-01-10T07:04:39;102103.78;;;-9.73;74.39
12781;BME280;6454;43.304;24.344;2024-01-10T07:07:04;102116.28;;;-9.63;74.21
12781;BME280;6454;43.304;24.344;2024-01-10T07:09:30;102099.63;;;-9.65;74.12
12781;BME280;6454;43.304;24.344;2024-01-10T07:11:56;102099.78;;;-9.57;74.52
12781;BME280;6454;43.304;24.344;2024-01-10T07:14:21;102113.41;;;-9.41;74.54
12781;BME280;6454;43.304;24.344;2024-01-10T07:16:47;102105.84;;;-9.36;74.47
12781;BME280;6454;43.304;24.344;2024-01-10T07:19:13;102103.75;;;-9.33;74.89
12781;BME280;6454;43.304;24.344;2024-01-10T07:21:40;102096.63;;;-9.32;74.93
12781;BME280;6454;43.304;24.344;2024-01-10T07:24:06;102101.09;;;-9.23;74.79
12781;BME280;6454;43.304;24.344;2024-01-10T07:26:33;102101.13;;;-9.14;74.72
12781;BME280;6454;43.304;24.344;2024-01-10T07:28:59;102103.66;;;-9.02;75.82
12781;BME280;6454;43.304;24.344;2024-01-10T07:31:30;102108.00;;;-8.92;75.01
12781;BME280;6454;43.304;24.344;2024-01-10T07:33:56;102105.88;;;-8.79;76.29
12781;BME280;6454;43.304;24.344;2024-01-10T07:36:25;102092.56;;;-8.79;75.96
12781;BME280;6454;43.304;24.344;2024-01-10T07:38:56;102112.03;;;-8.59;75.63
12781;BME280;6454;43.304;24.344;2024-01-10T07:41:22;102097.72;;;-8.49;75.27
12781;BME280;6454;43.304;24.344;2024-01-10T07:43:49;102098.69;;;-8.40;75.36
12781;BME280;6454;43.304;24.344;2024-01-10T07:46:14;102104.53;;;-8.27;76.40
12781;BME280;6454;43.304;24.344;2024-01-10T07:48:40;102088.22;;;-8.24;76.31
12781;BME280;6454;43.304;24.344;2024-01-10T07:51:05;102109.63;;;-8.06;76.68
12781;BME280;6454;43.304;24.344;2024-01-10T07:53:31;102107.06;;;-7.98;76.96
12781;BME280;6454;43.304;24.344;2024-01-10T07:55:57;102084.88;;;-7.99;75.64
12781;BME280;6454;43.304;24.344;2024-01-10T07:58:22;102096.91;;;-7.85;76.31
12781;BME280;6454;43.304;24.344;2024-01-10T08:00:48;102100.63;;;-7.68;76.36
12781;BME280;6454;43.304;24.344;2024-01-10T08:03:13;102100.28;;;-7.56;76.47
12781;BME280;6454;43.304;24.344;2024-01-10T08:05:39;102096.69;;;-7.47;76.03
12781;BME280;6454;43.304;24.344;2024-01-10T08:08:05;102102.00;;;-7.37;76.22
12781;BME280;6454;43.304;24.344;2024-01-10T08:10:30;102090.88;;;-7.33;76.07
12781;BME280;6454;43.304;24.344;2024-01-10T08:12:56;102098.50;;;-7.20;75.48
12781;BME280;6454;43.304;24.344;2024-01-10T08:15:22;102084.16;;;-7.19;76.08
12781;BME280;6454;43.304;24.344;2024-01-10T08:17:48;102093.94;;;-7.10;76.16
12781;BME280;6454;43.304;24.344;2024-01-10T08:20:14;102087.16;;;-7.04;75.97
12781;BME280;6454;43.304;24.344;2024-01-10T08:22:45;102094.63;;;-6.90;76.41
12781;BME280;6454;43.304;24.344;2024-01-10T08:25:10;102087.81;;;-6.85;76.14
12781;BME280;6454;43.304;24.344;2024-01-10T08:27:36;102091.78;;;-6.71;76.87
12781;BME280;6454;43.304;24.344;2024-01-10T08:30:01;102075.22;;;-6.75;75.35
12781;BME280;6454;43.304;24.344;2024-01-10T08:32:30;102075.50;;;-6.60;75.77
12781;BME280;6454;43.304;24.344;2024-01-10T08:34:55;102086.94;;;-6.50;75.53
12781;BME280;6454;43.304;24.344;2024-01-10T08:37:20;102086.00;;;-6.41;76.01
12781;BME280;6454;43.304;24.344;2024-01-10T08:39:58;102078.34;;;-6.36;76.14
12781;BME280;6454;43.304;24.344;2024-01-10T08:42:24;102100.91;;;-6.13;74.79
12781;BME280;6454;43.304;24.344;2024-01-10T08:44:50;102093.75;;;-6.04;76.14
12781;BME280;6454;43.304;24.344;2024-01-10T08:47:15;102096.50;;;-5.96;75.88
12781;BME280;6454;43.304;24.344;2024-01-10T08:49:41;102074.91;;;-5.94;74.90
12781;BME280;6454;43.304;24.344;2024-01-10T08:52:06;102084.31;;;-5.82;74.68
12781;BME280;6454;43.304;24.344;2024-01-10T08:54:33;102074.94;;;-5.86;74.92
12781;BME280;6454;43.304;24.344;2024-01-10T08:56:59;102089.38;;;-5.71;74.68
12781;BME280;6454;43.304;24.344;2024-01-10T08:59:25;102086.41;;;-5.60;73.88
12781;BME280;6454;43.304;24.344;2024-01-10T09:01:53;102091.47;;;-5.57;75.19
12781;BME280;6454;43.304;24.344;2024-01-10T09:04:18;102074.03;;;-5.61;74.81
12781;BME280;6454;43.304;24.344;2024-01-10T09:06:45;102078.41;;;-5.52;74.27
12781;BME280;6454;43.304;24.344;2024-01-10T09:09:10;102084.28;;;-5.41;74.03
12781;BME280;6454;43.304;24.344;2024-01-10T09:11:38;102061.34;;;-5.43;73.92
12781;BME280;6454;43.304;24.344;2024-01-10T09:14:04;102062.72;;;-5.31;74.00
12781;BME280;6454;43.304;24.344;2024-01-10T09:16:29;102073.28;;;-5.13;72.95
12781;BME280;6454;43.304;24.344;2024-01-10T09:18:55;102073.66;;;-5.08;72.08
12781;BME280;6454;43.304;24.344;2024-01-10T09:21:22;102056.91;;;-5.10;72.37
12781;BME280;6454;43.304;24.344;2024-01-10T09:23:48;102043.34;;;-5.17;71.43
12781;BME280;6454;43.304;24.344;2024-01-10T09:26:19;102050.88;;;-5.04;71.63
12781;BME280;6454;43.304;24.344;2024-01-10T09:28:44;102048.19;;;-4.96;71.08
12781;BME280;6454;43.304;24.344;2024-01-10T09:31:10;102049.19;;;-4.89;71.98
12781;BME280;6454;43.304;24.344;2024-01-10T09:33:35;102056.44;;;-4.82;72.22
12781;BME280;6454;43.304;24.344;2024-01-10T09:36:01;102032.63;;;-4.93;70.68
12781;BME280;6454;43.304;24.344;2024-01-10T09:38:26;102025.59;;;-4.94;71.10
12781;BME280;6454;43.304;24.344;2024-01-10T09:40:59;102057.09;;;-4.71;71.54
12781;BME280;6454;43.304;24.344;2024-01-10T09:43:27;102040.34;;;-4.73;71.11
12781;BME280;6454;43.304;24.344;2024-01-10T09:45:54;102045.69;;;-4.65;69.47
12781;BME280;6454;43.304;24.344;2024-01-10T09:48:20;102033.28;;;-4.66;69.13
12781;BME280;6454;43.304;24.344;2024-01-10T09:50:48;102034.31;;;-4.59;68.46
12781;BME280;6454;43.304;24.344;2024-01-10T09:53:22;102035.28;;;-4.52;69.42
12781;BME280;6454;43.304;24.344;2024-01-10T09:55:49;102020.38;;;-4.55;68.97
12781;BME280;6454;43.304;24.344;2024-01-10T09:58:15;102026.91;;;-4.49;69.82
12781;BME280;6454;43.304;24.344;2024-01-10T10:00:41;102036.59;;;-4.32;69.85
12781;BME280;6454;43.304;24.344;2024-01-10T10:03:09;102037.91;;;-4.28;70.10
12781;BME280;6454;43.304;24.344;2024-01-10T10:05:40;102013.13;;;-4.30;68.96
12781;BME280;6454;43.304;24.344;2024-01-10T10:08:08;102014.44;;;-4.26;69.85
12781;BME280;6454;43.304;24.344;2024-01-10T10:10:35;102030.16;;;-4.15;68.92
12781;BME280;6454;43.304;24.344;2024-01-10T10:13:00;102007.19;;;-4.17;68.02
12781;BME280;6454;43.304;24.344;2024-01-10T10:15:26;102026.28;;;-4.12;67.75
12781;BME280;6454;43.304;24.344;2024-01-10T10:17:52;102003.84;;;-4.19;67.87
12781;BME280;6454;43.304;24.344;2024-01-10T10:20:25;102019.06;;;-4.04;68.51
12781;BME280;6454;43.304;24.344;2024-01-10T10:25:26;101999.44;;;-4.04;68.14
12781;BME280;6454;43.304;24.344;2024-01-10T10:27:52;102003.75;;;-3.95;68.26
12781;BME280;6454;43.304;24.344;2024-01-10T10:30:18;102007.06;;;-3.85;67.08
12781;BME280;6454;43.304;24.344;2024-01-10T10:32:43;101998.31;;;-3.79;67.73
12781;BME280;6454;43.304;24.344;2024-01-10T10:35:09;101988.41;;;-3.79;68.02
12781;BME280;6454;43.304;24.344;2024-01-10T10:37:35;101995.44;;;-3.70;67.79
12781;BME280;6454;43.304;24.344;2024-01-10T10:40:00;101992.75;;;-3.70;67.05
12781;BME280;6454;43.304;24.344;2024-01-10T10:42:28;101984.31;;;-3.67;67.86
12781;BME280;6454;43.304;24.344;2024-01-10T10:45:03;101976.59;;;-3.62;66.96
12781;BME280;6454;43.304;24.344;2024-01-10T10:47:36;101969.81;;;-3.57;68.16
12781;BME280;6454;43.304;24.344;2024-01-10T10:50:03;101961.28;;;-3.61;67.70
12781;BME280;6454;43.304;24.344;2024-01-10T10:52:29;101969.63;;;-3.56;68.10
12781;BME280;6454;43.304;24.344;2024-01-10T10:54:56;101959.28;;;-3.59;65.90
12781;BME280;6454;43.304;24.344;2024-01-10T10:57:25;101953.72;;;-3.57;66.51
12781;BME280;6454;43.304;24.344;2024-01-10T10:59:53;101950.81;;;-3.56;65.80
12781;BME280;6454;43.304;24.344;2024-01-10T11:02:21;101947.84;;;-3.61;66.28
12781;BME280;6454;43.304;24.344;2024-01-10T11:04:49;101959.38;;;-3.52;66.60
12781;BME280;6454;43.304;24.344;2024-01-10T11:07:15;101942.41;;;-3.53;66.27
12781;BME280;6454;43.304;24.344;2024-01-10T11:09:42;101936.88;;;-3.51;65.07
12781;BME280;6454;43.304;24.344;2024-01-10T11:20:47;101945.81;;;-3.36;66.27
12781;BME280;6454;43.304;24.344;2024-01-10T11:25:57;101933.72;;;-3.32;65.62
12781;BME280;6454;43.304;24.344;2024-01-10T11:28:25;101924.81;;;-3.33;65.83
12781;BME280;6454;43.304;24.344;2024-01-10T11:30:53;101915.44;;;-3.37;65.41
12781;BME280;6454;43.304;24.344;2024-01-10T11:33:22;101908.50;;;-3.31;66.23
12781;BME280;6454;43.304;24.344;2024-01-10T11:38:45;101920.44;;;-3.11;66.13
12781;BME280;6454;43.304;24.344;2024-01-10T11:41:23;101912.44;;;-3.19;64.63
12781;BME280;6454;43.304;24.344;2024-01-10T11:46:34;101905.03;;;-3.17;66.02
12781;BME280;6454;43.304;24.344;2024-01-10T11:49:00;101901.41;;;-3.10;65.34
12781;BME280;6454;43.304;24.344;2024-01-10T11:51:25;101900.59;;;-3.10;65.27
12781;BME280;6454;43.304;24.344;2024-01-10T11:53:51;101897.78;;;-3.17;65.52
12781;BME280;6454;43.304;24.344;2024-01-10T11:56:18;101896.03;;;-3.10;65.87
12781;BME280;6454;43.304;24.344;2024-01-10T11:58:54;101879.09;;;-3.10;65.27
12781;BME280;6454;43.304;24.344;2024-01-10T12:01:21;101888.56;;;-2.99;65.37
12781;BME280;6454;43.304;24.344;2024-01-10T12:03:47;101889.31;;;-2.91;65.41
12781;BME280;6454;43.304;24.344;2024-01-10T12:06:14;101889.84;;;-2.95;65.52
12781;BME280;6454;43.304;24.344;2024-01-10T12:08:41;101899.97;;;-2.97;64.80
12781;BME280;6454;43.304;24.344;2024-01-10T12:11:06;101882.16;;;-2.98;63.82
12781;BME280;6454;43.304;24.344;2024-01-10T12:13:32;101881.16;;;-2.97;64.29
12781;BME280;6454;43.304;24.344;2024-01-10T12:15:57;101873.63;;;-3.02;64.96
12781;BME280;6454;43.304;24.344;2024-01-10T12:18:23;101877.91;;;-2.93;64.10
12781;BME280;6454;43.304;24.344;2024-01-10T12:20:49;101869.47;;;-3.05;64.85
12781;BME280;6454;43.304;24.344;2024-01-10T12:23:15;101878.66;;;-2.99;65.44
12781;BME280;6454;43.304;24.344;2024-01-10T12:25:40;101864.91;;;-3.04;64.47
12781;BME280;6454;43.304;24.344;2024-01-10T12:28:06;101859.81;;;-2.99;64.69
12781;BME280;6454;43.304;24.344;2024-01-10T12:30:31;101868.63;;;-2.90;63.36
12781;BME280;6454;43.304;24.344;2024-01-10T12:33:00;101871.13;;;-2.89;63.77
12781;BME280;6454;43.304;24.344;2024-01-10T12:35:25;101868.19;;;-2.94;63.32
12781;BME280;6454;43.304;24.344;2024-01-10T12:37:57;101877.00;;;-2.85;64.34
12781;BME280;6454;43.304;24.344;2024-01-10T12:40:22;101868.81;;;-2.92;63.01
12781;BME280;6454;43.304;24.344;2024-01-10T12:42:48;101869.81;;;-2.93;63.51
12781;BME280;6454;43.304;24.344;2024-01-10T12:45:23;101867.72;;;-2.83;63.79
12781;BME280;6454;43.304;24.344;2024-01-10T12:47:48;101870.84;;;-2.79;63.89
12781;BME280;6454;43.304;24.344;2024-01-10T12:50:14;101869.38;;;-2.82;64.52
12781;BME280;6454;43.304;24.344;2024-01-10T12:52:41;101865.47;;;-2.94;63.85
12781;BME280;6454;43.304;24.344;2024-01-10T12:55:08;101877.25;;;-2.95;63.69
12781;BME280;6454;43.304;24.344;2024-01-10T12:57:33;101868.34;;;-2.95;64.55
12781;BME280;6454;43.304;24.344;2024-01-10T12:59:59;101859.06;;;-2.93;63.79
12781;BME280;6454;43.304;24.344;2024-01-10T13:02:24;101869.81;;;-2.93;63.95